Owings, MD (20736)

1:28 PM EST on February 07, 2016 (GMT -0500)
Victoria Station | | Change Station
CLOSE
Current Station
Personal Weather Station
Location: Owings, MD
Elevation: 157 ft
Nearby Weather Stations

Elev 157 ft 38.69 °N, 76.62 °W | Updated 9 minutes ago

Mostly Cloudy
Mostly Cloudy
41.9 °F
Feels Like 42 °F
N
1.0
Wind Variable Wind from North
Gusts 1.0 mph

Today
High -- | Low -- °F
--% Chance of Precip.
Yesterday
High -- | Low -- °F
Precip. -- in
Pressure 30.12 in
Visibility 10.0 miles
Clouds Few 18000 ft
Scattered Clouds 20000 ft
Windchill 42 °F
Dew Point 30 °F
Humidity 63%
Rainfall 0.00 in
Snow Depth Not available.
7:06 AM 5:34 PM
Waning Crescent, 1% visible
METAR KADW 071758Z AUTO 03008KT 10SM FEW180 SCT200 06/M06 A3009 RMK AO2 SLP199 T00591060 10062 21038 57018
Pressure 30.12 in
Visibility 10.0 miles
Clouds Few 18000 ft
Scattered Clouds 20000 ft
Windchill 42 °F
Dew Point 30 °F
Humidity 63%
Rainfall 0.00 in
Snow Depth Not available.
7:06 AM 5:34 PM
Waning Crescent, 1% visible
METAR KADW 071758Z AUTO 03008KT 10SM FEW180 SCT200 06/M06 A3009 RMK AO2 SLP199 T00591060 10062 21038 57018

10-Day Weather Forecast

Almanac

Astronomy

Feb. 07, 2016 Rise Set
Actual Time
Civil Twilight
Nautical Twilight
Astronomical Twilight
Moon
Length of Visible Light
Length of Day
Tomorrow will be .
, % of the Moon is Illuminated

Today's Extremes

State Highs State Lows

Community

WunderPhotos

Upload Photos

1,891,276 photos uploaded!

WunderBlog® & News

Nearby

Air Quality

  Air Quality AQ Index Pollutant
Not available.

Snow Depth

Station Depth Elevation

Earthquake Activity

City Distance Mag. Time & Date
Minimum magnitude displayed is 2.5.

Coastal Water Temperatures

Place Temperature

Stations

Nearby Weather Stations

Station Location Temp. Windchill Dew Point Humidity Wind Precip. Elev Updated Type
                   

Watches & Warnings

There are currently no watches in effect.